sensor_id;sensor_type;location;lat;lon;timestamp;pressure;altitude;pressure_sealevel;temperature;humidity
82033;BME280;71595;52.180;4.512;2023-07-30T00:01:36;100929.91;;;17.65;76.50
82033;BME280;71595;52.180;4.512;2023-07-30T00:04:02;100932.69;;;17.65;76.41
82033;BME280;71595;52.180;4.512;2023-07-30T00:06:27;100930.69;;;17.62;76.48
82033;BME280;71595;52.180;4.512;2023-07-30T00:08:53;100940.28;;;17.65;76.71
82033;BME280;71595;52.180;4.512;2023-07-30T00:11:18;100939.88;;;17.63;76.92
82033;BME280;71595;52.180;4.512;2023-07-30T00:13:43;100940.28;;;17.65;76.78
82033;BME280;71595;52.180;4.512;2023-07-30T00:16:09;100937.09;;;17.63;76.74
82033;BME280;71595;52.180;4.512;2023-07-30T00:18:34;100939.50;;;17.68;76.71
82033;BME280;71595;52.180;4.512;2023-07-30T00:20:59;100933.53;;;17.66;76.54
82033;BME280;71595;52.180;4.512;2023-07-30T00:23:25;100936.72;;;17.68;76.80
82033;BME280;71595;52.180;4.512;2023-07-30T00:25:50;100937.94;;;17.70;76.60
82033;BME280;71595;52.180;4.512;2023-07-30T00:28:15;100935.53;;;17.69;76.79
82033;BME280;71595;52.180;4.512;2023-07-30T00:30:42;100941.94;;;17.69;76.96
82033;BME280;71595;52.180;4.512;2023-07-30T00:33:08;100944.34;;;17.71;76.97
82033;BME280;71595;52.180;4.512;2023-07-30T00:35:33;100945.50;;;17.70;76.78
82033;BME280;71595;52.180;4.512;2023-07-30T00:37:58;100945.13;;;17.71;76.86
82033;BME280;71595;52.180;4.512;2023-07-30T00:40:24;100953.50;;;17.71;76.79
82033;BME280;71595;52.180;4.512;2023-07-30T00:42:49;100953.56;;;17.75;76.81
82033;BME280;71595;52.180;4.512;2023-07-30T00:45:15;100957.13;;;17.75;76.62
82033;BME280;71595;52.180;4.512;2023-07-30T00:47:41;100963.50;;;17.72;77.20
82033;BME280;71595;52.180;4.512;2023-07-30T00:50:07;100953.94;;;17.73;77.07
82033;BME280;71595;52.180;4.512;2023-07-30T00:52:33;100961.50;;;17.73;77.03
82033;BME280;71595;52.180;4.512;2023-07-30T00:55:01;100962.31;;;17.73;77.10
82033;BME280;71595;52.180;4.512;2023-07-30T00:57:28;100953.50;;;17.71;76.99
82033;BME280;71595;52.180;4.512;2023-07-30T00:59:54;100959.94;;;17.75;76.90
82033;BME280;71595;52.180;4.512;2023-07-30T01:02:21;100953.56;;;17.75;76.96
82033;BME280;71595;52.180;4.512;2023-07-30T01:04:46;100957.16;;;17.79;76.93
82033;BME280;71595;52.180;4.512;2023-07-30T01:07:12;100955.97;;;17.80;76.93
82033;BME280;71595;52.180;4.512;2023-07-30T01:09:38;100956.75;;;17.77;76.83
82033;BME280;71595;52.180;4.512;2023-07-30T01:12:05;100952.81;;;17.82;76.94
82033;BME280;71595;52.180;4.512;2023-07-30T01:14:32;100955.59;;;17.85;76.81
82033;BME280;71595;52.180;4.512;2023-07-30T01:16:58;100953.19;;;17.84;76.82
82033;BME280;71595;52.180;4.512;2023-07-30T01:19:23;100958.78;;;17.84;77.04
82033;BME280;71595;52.180;4.512;2023-07-30T01:21:48;100959.63;;;17.84;77.05
82033;BME280;71595;52.180;4.512;2023-07-30T01:24:14;100964.38;;;17.84;77.19
82033;BME280;71595;52.180;4.512;2023-07-30T01:27:14;100967.56;;;17.82;77.29
82033;BME280;71595;52.180;4.512;2023-07-30T01:29:51;100969.97;;;17.84;77.47
82033;BME280;71595;52.180;4.512;2023-07-30T01:32:19;100964.38;;;17.84;77.41
82033;BME280;71595;52.180;4.512;2023-07-30T01:34:46;100970.41;;;17.86;77.38
82033;BME280;71595;52.180;4.512;2023-07-30T01:37:15;100960.41;;;17.85;77.65
82033;BME280;71595;52.180;4.512;2023-07-30T01:39:42;100956.44;;;17.86;77.64
82033;BME280;71595;52.180;4.512;2023-07-30T01:42:12;100966.41;;;17.87;77.44
82033;BME280;71595;52.180;4.512;2023-07-30T01:44:37;100974.78;;;17.87;77.69
82033;BME280;71595;52.180;4.512;2023-07-30T01:47:03;100971.56;;;17.85;77.50
82033;BME280;71595;52.180;4.512;2023-07-30T01:49:28;100962.41;;;17.84;77.67
82033;BME280;71595;52.180;4.512;2023-07-30T01:51:54;100975.16;;;17.82;77.73
82033;BME280;71595;52.180;4.512;2023-07-30T01:54:19;100969.16;;;17.83;77.80
82033;BME280;71595;52.180;4.512;2023-07-30T01:56:44;100977.56;;;17.83;77.50
82033;BME280;71595;52.180;4.512;2023-07-30T01:59:10;100983.53;;;17.82;77.40
82033;BME280;71595;52.180;4.512;2023-07-30T02:01:35;100973.13;;;17.78;77.66
82033;BME280;71595;52.180;4.512;2023-07-30T02:04:00;100969.16;;;17.83;77.68
82033;BME280;71595;52.180;4.512;2023-07-30T02:06:26;100969.56;;;17.82;77.66
82033;BME280;71595;52.180;4.512;2023-07-30T02:08:51;100969.97;;;17.84;77.41
82033;BME280;71595;52.180;4.512;2023-07-30T02:11:16;100975.94;;;17.82;77.67
82033;BME280;71595;52.180;4.512;2023-07-30T02:13:42;100968.38;;;17.83;77.11
82033;BME280;71595;52.180;4.512;2023-07-30T02:16:07;100967.56;;;17.82;77.10
82033;BME280;71595;52.180;4.512;2023-07-30T02:18:33;100969.16;;;17.83;76.64
82033;BME280;71595;52.180;4.512;2023-07-30T02:20:58;100966.75;;;17.82;76.61
82033;BME280;71595;52.180;4.512;2023-07-30T02:23:23;100972.34;;;17.82;76.36
82033;BME280;71595;52.180;4.512;2023-07-30T02:25:49;100967.16;;;17.84;76.38
82033;BME280;71595;52.180;4.512;2023-07-30T02:28:14;100976.31;;;17.81;76.18
82033;BME280;71595;52.180;4.512;2023-07-30T02:30:39;100963.19;;;17.81;75.50
82033;BME280;71595;52.180;4.512;2023-07-30T02:33:05;100959.56;;;17.81;75.85
82033;BME280;71595;52.180;4.512;2023-07-30T02:35:30;100963.19;;;17.81;75.16
82033;BME280;71595;52.180;4.512;2023-07-30T02:37:56;100960.38;;;17.81;75.49
82033;BME280;71595;52.180;4.512;2023-07-30T02:40:21;100963.59;;;17.83;75.27
82033;BME280;71595;52.180;4.512;2023-07-30T02:42:46;100957.16;;;17.79;75.10
82033;BME280;71595;52.180;4.512;2023-07-30T02:45:12;100954.38;;;17.79;74.85
82033;BME280;71595;52.180;4.512;2023-07-30T02:47:37;100958.38;;;17.78;74.42
82033;BME280;71595;52.180;4.512;2023-07-30T02:50:04;100957.16;;;17.79;73.77
82033;BME280;71595;52.180;4.512;2023-07-30T02:52:31;100959.16;;;17.78;72.96
82033;BME280;71595;52.180;4.512;2023-07-30T02:54:56;100957.97;;;17.79;72.46
82033;BME280;71595;52.180;4.512;2023-07-30T02:57:24;100955.56;;;17.78;72.04
82033;BME280;71595;52.180;4.512;2023-07-30T02:59:50;100957.97;;;17.79;71.55
82033;BME280;71595;52.180;4.512;2023-07-30T03:02:15;100953.97;;;17.81;71.42
82033;BME280;71595;52.180;4.512;2023-07-30T03:04:40;100970.75;;;17.81;71.10
82033;BME280;71595;52.180;4.512;2023-07-30T03:07:08;100965.91;;;17.77;70.05
82033;BME280;71595;52.180;4.512;2023-07-30T03:09:33;100972.75;;;17.80;69.41
82033;BME280;71595;52.180;4.512;2023-07-30T03:11:59;100965.16;;;17.81;68.43
82033;BME280;71595;52.180;4.512;2023-07-30T03:14:24;100963.19;;;17.81;66.46
82033;BME280;71595;52.180;4.512;2023-07-30T03:16:50;100959.56;;;17.81;65.85
82033;BME280;71595;52.180;4.512;2023-07-30T03:19:15;100964.75;;;17.78;65.66
82033;BME280;71595;52.180;4.512;2023-07-30T03:21:41;100972.72;;;17.76;65.92
82033;BME280;71595;52.180;4.512;2023-07-30T03:24:07;100977.47;;;17.76;65.75
82033;BME280;71595;52.180;4.512;2023-07-30T03:26:32;100969.09;;;17.76;66.25
82033;BME280;71595;52.180;4.512;2023-07-30T03:28:57;100970.69;;;17.73;66.95
82033;BME280;71595;52.180;4.512;2023-07-30T03:31:23;100967.47;;;17.71;66.79
82033;BME280;71595;52.180;4.512;2023-07-30T03:33:48;100965.06;;;17.70;66.90
82033;BME280;71595;52.180;4.512;2023-07-30T03:36:14;100970.66;;;17.70;66.72
82033;BME280;71595;52.180;4.512;2023-07-30T03:38:40;100972.66;;;17.69;66.39
82033;BME280;71595;52.180;4.512;2023-07-30T03:41:06;100971.03;;;17.68;66.45
82033;BME280;71595;52.180;4.512;2023-07-30T03:43:35;100963.84;;;17.67;66.49
82033;BME280;71595;52.180;4.512;2023-07-30T03:46:01;100968.22;;;17.68;66.16
82033;BME280;71595;52.180;4.512;2023-07-30T03:48:26;100961.06;;;17.67;65.26
82033;BME280;71595;52.180;4.512;2023-07-30T03:50:53;100961.84;;;17.64;62.43
82033;BME280;71595;52.180;4.512;2023-07-30T03:53:20;100968.59;;;17.63;61.46
82033;BME280;71595;52.180;4.512;2023-07-30T03:55:45;100963.41;;;17.61;60.85
82033;BME280;71595;52.180;4.512;2023-07-30T03:58:10;100968.19;;;17.61;60.83
82033;BME280;71595;52.180;4.512;2023-07-30T04:00:36;100971.38;;;17.59;60.66
82033;BME280;71595;52.180;4.512;2023-07-30T04:03:02;100971.38;;;17.59;60.81
82033;BME280;71595;52.180;4.512;2023-07-30T04:05:27;100976.13;;;17.59;61.04
82033;BME280;71595;52.180;4.512;2023-07-30T04:07:52;100978.50;;;17.57;60.89
82033;BME280;71595;52.180;4.512;2023-07-30T04:10:18;100974.50;;;17.54;60.46
82033;BME280;71595;52.180;4.512;2023-07-30T04:12:44;100976.50;;;17.54;60.70
82033;BME280;71595;52.180;4.512;2023-07-30T04:15:09;100974.47;;;17.51;61.54
82033;BME280;71595;52.180;4.512;2023-07-30T04:17:36;100965.69;;;17.49;61.11
82033;BME280;71595;52.180;4.512;2023-07-30T04:20:02;100972.06;;;17.49;60.82
82033;BME280;71595;52.180;4.512;2023-07-30T04:22:28;100970.44;;;17.48;60.60
82033;BME280;71595;52.180;4.512;2023-07-30T04:24:53;100972.44;;;17.48;61.08
82033;BME280;71595;52.180;4.512;2023-07-30T04:27:19;100976.84;;;17.49;61.26
82033;BME280;71595;52.180;4.512;2023-07-30T04:29:44;100974.00;;;17.45;61.62
82033;BME280;71595;52.180;4.512;2023-07-30T04:32:10;100972.03;;;17.46;61.99
82033;BME280;71595;52.180;4.512;2023-07-30T04:34:35;100970.00;;;17.42;62.33
82033;BME280;71595;52.180;4.512;2023-07-30T04:37:01;100969.25;;;17.46;62.75
82033;BME280;71595;52.180;4.512;2023-07-30T04:39:27;100967.25;;;17.46;62.13
82033;BME280;71595;52.180;4.512;2023-07-30T04:41:53;100969.25;;;17.46;62.56
82033;BME280;71595;52.180;4.512;2023-07-30T04:44:21;100968.84;;;17.47;63.17
82033;BME280;71595;52.180;4.512;2023-07-30T04:46:47;100978.41;;;17.46;62.65
82033;BME280;71595;52.180;4.512;2023-07-30T04:49:12;100981.19;;;17.46;62.89
82033;BME280;71595;52.180;4.512;2023-07-30T04:51:37;100977.22;;;17.47;63.20
82033;BME280;71595;52.180;4.512;2023-07-30T04:54:03;100981.59;;;17.48;63.29
82033;BME280;71595;52.180;4.512;2023-07-30T04:56:28;100984.84;;;17.50;63.27
82033;BME280;71595;52.180;4.512;2023-07-30T04:58:54;100980.03;;;17.51;63.57
82033;BME280;71595;52.180;4.512;2023-07-30T05:01:19;100983.25;;;17.53;63.50
82033;BME280;71595;52.180;4.512;2023-07-30T05:03:45;100986.03;;;17.53;63.46
82033;BME280;71595;52.180;4.512;2023-07-30T05:06:10;100989.66;;;17.53;64.23
82033;BME280;71595;52.180;4.512;2023-07-30T05:08:35;100984.88;;;17.54;64.17
82033;BME280;71595;52.180;4.512;2023-07-30T05:11:01;100973.69;;;17.54;63.75
82033;BME280;71595;52.180;4.512;2023-07-30T05:13:26;100980.13;;;17.58;64.01
82033;BME280;71595;52.180;4.512;2023-07-30T05:15:51;100985.72;;;17.58;63.79
82033;BME280;71595;52.180;4.512;2023-07-30T05:18:17;100976.91;;;17.56;64.11
82033;BME280;71595;52.180;4.512;2023-07-30T05:20:42;100982.16;;;17.61;64.05
82033;BME280;71595;52.180;4.512;2023-07-30T05:23:10;100986.53;;;17.62;64.08
82033;BME280;71595;52.180;4.512;2023-07-30T05:25:35;100988.16;;;17.63;63.56
82033;BME280;71595;52.180;4.512;2023-07-30T05:28:04;100973.38;;;17.63;63.86
82033;BME280;71595;52.180;4.512;2023-07-30T05:30:29;100981.78;;;17.66;63.92
82033;BME280;71595;52.180;4.512;2023-07-30T05:32:55;100988.16;;;17.67;63.98
82033;BME280;71595;52.180;4.512;2023-07-30T05:35:20;100990.97;;;17.67;64.32
82033;BME280;71595;52.180;4.512;2023-07-30T05:37:46;100991.41;;;17.69;64.44
82033;BME280;71595;52.180;4.512;2023-07-30T05:40:11;100982.63;;;17.70;64.15
82033;BME280;71595;52.180;4.512;2023-07-30T05:42:39;100985.84;;;17.72;64.21
82033;BME280;71595;52.180;4.512;2023-07-30T05:45:05;100987.47;;;17.77;64.17
82033;BME280;71595;52.180;4.512;2023-07-30T05:47:31;100981.09;;;17.76;64.05
82033;BME280;71595;52.180;4.512;2023-07-30T05:49:56;100980.31;;;17.79;64.10
82033;BME280;71595;52.180;4.512;2023-07-30T05:52:21;100987.88;;;17.79;64.27
82033;BME280;71595;52.180;4.512;2023-07-30T05:54:47;100981.91;;;17.81;64.36
82033;BME280;71595;52.180;4.512;2023-07-30T05:57:12;100989.13;;;17.82;64.73
82033;BME280;71595;52.180;4.512;2023-07-30T05:59:38;100984.28;;;17.78;65.34
82033;BME280;71595;52.180;4.512;2023-07-30T06:02:03;100992.31;;;17.84;65.19
82033;BME280;71595;52.180;4.512;2023-07-30T06:04:29;101003.06;;;17.82;65.13
82033;BME280;71595;52.180;4.512;2023-07-30T06:06:55;100998.72;;;17.84;65.22
82033;BME280;71595;52.180;4.512;2023-07-30T06:09:20;100996.31;;;17.83;64.83
82033;BME280;71595;52.180;4.512;2023-07-30T06:11:46;100989.97;;;17.86;64.92
82033;BME280;71595;52.180;4.512;2023-07-30T06:14:11;100993.94;;;17.85;64.42
82033;BME280;71595;52.180;4.512;2023-07-30T06:16:36;100994.34;;;17.87;64.88
82033;BME280;71595;52.180;4.512;2023-07-30T06:19:02;100993.91;;;17.81;65.10
82033;BME280;71595;52.180;4.512;2023-07-30T06:21:27;100989.88;;;17.78;66.24
82033;BME280;71595;52.180;4.512;2023-07-30T06:23:54;100991.50;;;17.79;65.57
82033;BME280;71595;52.180;4.512;2023-07-30T06:26:19;100984.28;;;17.78;65.91
82033;BME280;71595;52.180;4.512;2023-07-30T06:28:51;100989.47;;;17.76;65.89
82033;BME280;71595;52.180;4.512;2023-07-30T06:31:16;100990.66;;;17.79;66.08
82033;BME280;71595;52.180;4.512;2023-07-30T06:33:41;100987.50;;;17.81;66.07
82033;BME280;71595;52.180;4.512;2023-07-30T06:36:07;100998.66;;;17.81;66.08
82033;BME280;71595;52.180;4.512;2023-07-30T06:38:32;100995.50;;;17.82;65.91
82033;BME280;71595;52.180;4.512;2023-07-30T06:40:59;100994.69;;;17.82;66.51
82033;BME280;71595;52.180;4.512;2023-07-30T06:43:24;100996.25;;;17.79;66.28
82033;BME280;71595;52.180;4.512;2023-07-30T06:45:50;101004.75;;;17.90;65.93
82033;BME280;71595;52.180;4.512;2023-07-30T06:48:15;101001.19;;;17.93;65.43
82033;BME280;71595;52.180;4.512;2023-07-30T06:50:41;101005.25;;;17.99;65.73
82033;BME280;71595;52.180;4.512;2023-07-30T06:53:06;100991.75;;;18.08;65.29
82033;BME280;71595;52.180;4.512;2023-07-30T06:55:38;100996.16;;;18.09;64.36
82033;BME280;71595;52.180;4.512;2023-07-30T06:58:03;100991.75;;;18.08;64.14
82033;BME280;71595;52.180;4.512;2023-07-30T07:00:29;101000.50;;;18.03;63.90
82033;BME280;71595;52.180;4.512;2023-07-30T07:02:54;100996.06;;;17.99;64.51
82033;BME280;71595;52.180;4.512;2023-07-30T07:05:19;101004.41;;;17.95;65.19
82033;BME280;71595;52.180;4.512;2023-07-30T07:07:45;101015.56;;;17.95;65.45
82033;BME280;71595;52.180;4.512;2023-07-30T07:10:11;101017.16;;;17.92;65.82
82033;BME280;71595;52.180;4.512;2023-07-30T07:12:38;101011.97;;;17.91;66.23
82033;BME280;71595;52.180;4.512;2023-07-30T07:15:04;101021.09;;;17.88;66.94
82033;BME280;71595;52.180;4.512;2023-07-30T07:17:29;101022.28;;;17.87;67.51
82033;BME280;71595;52.180;4.512;2023-07-30T07:19:55;101021.84;;;17.85;67.53
82033;BME280;71595;52.180;4.512;2023-07-30T07:22:20;101022.66;;;17.85;67.66
82033;BME280;71595;52.180;4.512;2023-07-30T07:24:46;101036.63;;;17.85;67.80
82033;BME280;71595;52.180;4.512;2023-07-30T07:27:11;101030.66;;;17.87;68.14
82033;BME280;71595;52.180;4.512;2023-07-30T07:29:37;101034.56;;;17.78;67.70
82033;BME280;71595;52.180;4.512;2023-07-30T07:32:03;101032.25;;;17.84;68.44
82033;BME280;71595;52.180;4.512;2023-07-30T07:34:28;101029.84;;;17.86;69.26
82033;BME280;71595;52.180;4.512;2023-07-30T07:36:54;101034.66;;;17.86;70.21
82033;BME280;71595;52.180;4.512;2023-07-30T07:39:19;101043.41;;;17.84;69.55
82033;BME280;71595;52.180;4.512;2023-07-30T07:41:45;101040.63;;;17.84;69.35
82033;BME280;71595;52.180;4.512;2023-07-30T07:44:10;101046.31;;;17.95;68.37
82033;BME280;71595;52.180;4.512;2023-07-30T07:46:36;101035.66;;;18.08;66.29
82033;BME280;71595;52.180;4.512;2023-07-30T07:49:01;101038.88;;;18.13;66.71
82033;BME280;71595;52.180;4.512;2023-07-30T07:51:27;101049.28;;;18.17;66.88
82033;BME280;71595;52.180;4.512;2023-07-30T07:53:52;101044.53;;;18.17;66.88
82033;BME280;71595;52.180;4.512;2023-07-30T07:56:17;101054.09;;;18.20;66.66
82033;BME280;71595;52.180;4.512;2023-07-30T07:58:43;101062.53;;;18.23;65.79
82033;BME280;71595;52.180;4.512;2023-07-30T08:01:08;101062.16;;;18.25;65.34
82033;BME280;71595;52.180;4.512;2023-07-30T08:03:33;101068.53;;;18.22;65.65
82033;BME280;71595;52.180;4.512;2023-07-30T08:05:59;101060.13;;;18.22;66.03
82033;BME280;71595;52.180;4.512;2023-07-30T08:08:27;101061.72;;;18.23;65.74
82033;BME280;71595;52.180;4.512;2023-07-30T08:10:53;101059.69;;;18.20;65.22
82033;BME280;71595;52.180;4.512;2023-07-30T08:13:19;101072.50;;;18.21;65.36
82033;BME280;71595;52.180;4.512;2023-07-30T08:15:45;101067.75;;;18.28;65.67
82033;BME280;71595;52.180;4.512;2023-07-30T08:18:10;101066.22;;;18.38;65.51
82033;BME280;71595;52.180;4.512;2023-07-30T08:20:36;101059.16;;;18.52;65.13
82033;BME280;71595;52.180;4.512;2023-07-30T08:23:02;101059.56;;;18.54;64.99
82033;BME280;71595;52.180;4.512;2023-07-30T08:25:27;101054.81;;;18.61;65.15
82033;BME280;71595;52.180;4.512;2023-07-30T08:27:52;101052.41;;;18.63;64.40
82033;BME280;71595;52.180;4.512;2023-07-30T08:30:18;101065.22;;;18.64;64.42
82033;BME280;71595;52.180;4.512;2023-07-30T08:32:43;101055.19;;;18.60;63.78
82033;BME280;71595;52.180;4.512;2023-07-30T08:35:09;101056.81;;;18.61;63.77
82033;BME280;71595;52.180;4.512;2023-07-30T08:37:35;101058.41;;;18.62;63.96
82033;BME280;71595;52.180;4.512;2023-07-30T08:40:00;101053.59;;;18.59;63.63
82033;BME280;71595;52.180;4.512;2023-07-30T08:42:26;101062.41;;;18.61;63.65
82033;BME280;71595;52.180;4.512;2023-07-30T08:44:51;101056.84;;;18.68;62.91
82033;BME280;71595;52.180;4.512;2023-07-30T08:47:17;101058.09;;;18.74;61.70
82033;BME280;71595;52.180;4.512;2023-07-30T08:49:42;101056.56;;;18.84;61.90
82033;BME280;71595;52.180;4.512;2023-07-30T08:52:09;101057.03;;;18.97;62.17
82033;BME280;71595;52.180;4.512;2023-07-30T08:54:36;101060.25;;;19.02;62.92
82033;BME280;71595;52.180;4.512;2023-07-30T08:57:02;101067.47;;;19.00;62.63
82033;BME280;71595;52.180;4.512;2023-07-30T08:59:31;101081.38;;;18.89;61.52
82033;BME280;71595;52.180;4.512;2023-07-30T09:01:59;101076.97;;;18.84;61.43
82033;BME280;71595;52.180;4.512;2023-07-30T09:04:28;101081.78;;;18.91;61.13
82033;BME280;71595;52.180;4.512;2023-07-30T09:06:55;101079.81;;;18.92;61.33
82033;BME280;71595;52.180;4.512;2023-07-30T09:09:21;101071.44;;;18.99;61.33
82033;BME280;71595;52.180;4.512;2023-07-30T09:11:52;101077.47;;;19.08;61.15
82033;BME280;71595;52.180;4.512;2023-07-30T09:14:20;101088.28;;;19.13;60.98
82033;BME280;71595;52.180;4.512;2023-07-30T09:16:46;101069.91;;;19.12;59.82
82033;BME280;71595;52.180;4.512;2023-07-30T09:19:16;101081.91;;;19.13;59.88
82033;BME280;71595;52.180;4.512;2023-07-30T09:21:43;101084.31;;;19.14;60.00
82033;BME280;71595;52.180;4.512;2023-07-30T09:24:08;101085.13;;;19.18;59.80
82033;BME280;71595;52.180;4.512;2023-07-30T09:26:42;101086.31;;;19.14;61.09
82033;BME280;71595;52.180;4.512;2023-07-30T09:29:09;101086.75;;;19.27;60.99
82033;BME280;71595;52.180;4.512;2023-07-30T09:31:51;101092.75;;;19.29;59.51
82033;BME280;71595;52.180;4.512;2023-07-30T09:34:18;101105.19;;;19.35;58.71
82033;BME280;71595;52.180;4.512;2023-07-30T09:36:44;101107.59;;;19.33;58.33
82033;BME280;71595;52.180;4.512;2023-07-30T09:39:19;101110.44;;;19.40;59.34
82033;BME280;71595;52.180;4.512;2023-07-30T09:41:45;101115.63;;;19.45;58.87
82033;BME280;71595;52.180;4.512;2023-07-30T09:44:11;101126.06;;;19.52;59.15
82033;BME280;71595;52.180;4.512;2023-07-30T09:46:44;101122.47;;;19.58;57.98
82033;BME280;71595;52.180;4.512;2023-07-30T09:49:10;101130.88;;;19.58;58.56
82033;BME280;71595;52.180;4.512;2023-07-30T09:51:39;101129.28;;;19.57;59.00
82033;BME280;71595;52.180;4.512;2023-07-30T09:54:10;101126.88;;;19.56;58.92
82033;BME280;71595;52.180;4.512;2023-07-30T09:56:36;101124.47;;;19.54;59.05
82033;BME280;71595;52.180;4.512;2023-07-30T09:59:02;101133.25;;;19.49;57.61
82033;BME280;71595;52.180;4.512;2023-07-30T10:01:29;101134.06;;;19.57;57.54
82033;BME280;71595;52.180;4.512;2023-07-30T10:03:56;101121.28;;;19.56;57.95
82033;BME280;71595;52.180;4.512;2023-07-30T10:06:24;101139.22;;;19.44;59.20
82033;BME280;71595;52.180;4.512;2023-07-30T10:08:52;101143.19;;;19.32;60.89
82033;BME280;71595;52.180;4.512;2023-07-30T10:11:20;101146.78;;;19.33;60.37
82033;BME280;71595;52.180;4.512;2023-07-30T10:13:47;101144.44;;;19.42;59.97
82033;BME280;71595;52.180;4.512;2023-07-30T10:16:13;101136.03;;;19.42;59.73
82033;BME280;71595;52.180;4.512;2023-07-30T10:18:39;101145.63;;;19.37;60.28
82033;BME280;71595;52.180;4.512;2023-07-30T10:21:07;101135.53;;;19.26;60.83
82033;BME280;71595;52.180;4.512;2023-07-30T10:23:34;101145.13;;;19.21;61.73
82033;BME280;71595;52.180;4.512;2023-07-30T10:26:09;101143.94;;;19.26;61.88
82033;BME280;71595;52.180;4.512;2023-07-30T10:28:35;101156.41;;;19.39;61.75
82033;BME280;71595;52.180;4.512;2023-07-30T10:31:08;101158.44;;;19.42;59.83
82033;BME280;71595;52.180;4.512;2023-07-30T10:33:45;101167.69;;;19.53;59.72
82033;BME280;71595;52.180;4.512;2023-07-30T10:36:11;101162.88;;;19.50;59.95
82033;BME280;71595;52.180;4.512;2023-07-30T10:38:37;101168.47;;;19.50;60.96
82033;BME280;71595;52.180;4.512;2023-07-30T10:41:14;101173.28;;;19.53;60.53
82033;BME280;71595;52.180;4.512;2023-07-30T10:43:43;101166.50;;;19.54;59.80
82033;BME280;71595;52.180;4.512;2023-07-30T10:46:11;101179.66;;;19.50;60.32
82033;BME280;71595;52.180;4.512;2023-07-30T10:48:39;101174.06;;;19.50;60.83
82033;BME280;71595;52.180;4.512;2023-07-30T10:51:07;101170.88;;;19.55;59.99
82033;BME280;71595;52.180;4.512;2023-07-30T10:53:33;101176.91;;;19.57;60.22
82033;BME280;71595;52.180;4.512;2023-07-30T10:56:01;101176.47;;;19.55;60.28
82033;BME280;71595;52.180;4.512;2023-07-30T10:58:30;101179.72;;;19.57;60.05
82033;BME280;71595;52.180;4.512;2023-07-30T11:00:56;101176.53;;;19.63;59.77
82033;BME280;71595;52.180;4.512;2023-07-30T11:03:24;101177.34;;;19.70;60.63
82033;BME280;71595;52.180;4.512;2023-07-30T11:05:50;101177.34;;;19.74;60.99
82033;BME280;71595;52.180;4.512;2023-07-30T11:08:16;101181.34;;;19.69;60.26
82033;BME280;71595;52.180;4.512;2023-07-30T11:10:45;101202.97;;;19.69;59.80
82033;BME280;71595;52.180;4.512;2023-07-30T11:13:14;101178.16;;;19.71;59.57
82033;BME280;71595;52.180;4.512;2023-07-30T11:15:43;101189.41;;;19.78;59.18
82033;BME280;71595;52.180;4.512;2023-07-30T11:18:09;101188.16;;;19.75;59.04
82033;BME280;71595;52.180;4.512;2023-07-30T11:20:35;101195.78;;;19.75;59.70
82033;BME280;71595;52.180;4.512;2023-07-30T11:23:02;101205.38;;;19.67;60.33
82033;BME280;71595;52.180;4.512;2023-07-30T11:25:27;101195.78;;;19.71;60.17
82033;BME280;71595;52.180;4.512;2023-07-30T11:27:52;101195.72;;;19.61;60.47
82033;BME280;71595;52.180;4.512;2023-07-30T11:30:18;101204.53;;;19.59;60.68
82033;BME280;71595;52.180;4.512;2023-07-30T11:32:45;101204.50;;;19.55;61.47
82033;BME280;71595;52.180;4.512;2023-07-30T11:35:11;101217.31;;;19.56;61.24
82033;BME280;71595;52.180;4.512;2023-07-30T11:37:39;101189.69;;;19.51;60.74
82033;BME280;71595;52.180;4.512;2023-07-30T11:40:11;101198.94;;;19.59;60.66
82033;BME280;71595;52.180;4.512;2023-07-30T11:42:38;101204.94;;;19.61;60.58
82033;BME280;71595;52.180;4.512;2023-07-30T11:45:24;101208.97;;;19.71;59.71
82033;BME280;71595;52.180;4.512;2023-07-30T11:47:49;101211.41;;;19.76;59.74
82033;BME280;71595;52.180;4.512;2023-07-30T11:50:15;101213.47;;;19.83;59.71
82033;BME280;71595;52.180;4.512;2023-07-30T11:52:55;101213.50;;;19.93;60.29
82033;BME280;71595;52.180;4.512;2023-07-30T11:55:21;101208.28;;;19.92;60.36
82033;BME280;71595;52.180;4.512;2023-07-30T11:57:47;101224.31;;;20.02;60.56
82033;BME280;71595;52.180;4.512;2023-07-30T12:00:12;101211.13;;;19.99;58.21
82033;BME280;71595;52.180;4.512;2023-07-30T12:02:38;101212.72;;;20.04;57.58
82033;BME280;71595;52.180;4.512;2023-07-30T12:05:04;101214.31;;;20.01;57.63
82033;BME280;71595;52.180;4.512;2023-07-30T12:07:32;101205.53;;;20.06;57.85
82033;BME280;71595;52.180;4.512;2023-07-30T12:10:08;101225.53;;;20.01;58.46
82033;BME280;71595;52.180;4.512;2023-07-30T12:12:34;101204.72;;;20.06;57.97
82033;BME280;71595;52.180;4.512;2023-07-30T12:14:59;101220.72;;;19.95;57.28
82033;BME280;71595;52.180;4.512;2023-07-30T12:17:31;101235.91;;;19.93;58.50
82033;BME280;71595;52.180;4.512;2023-07-30T12:20:00;101231.09;;;19.90;58.66
82033;BME280;71595;52.180;4.512;2023-07-30T12:22:25;101226.72;;;19.97;59.63
82033;BME280;71595;52.180;4.512;2023-07-30T12:24:51;101231.13;;;19.98;59.34
82033;BME280;71595;52.180;4.512;2023-07-30T12:27:16;101226.28;;;19.91;58.66
82033;BME280;71595;52.180;4.512;2023-07-30T12:29:42;101236.72;;;19.90;59.63
82033;BME280;71595;52.180;4.512;2023-07-30T12:32:08;101226.38;;;20.09;59.51
82033;BME280;71595;52.180;4.512;2023-07-30T12:34:33;101240.00;;;20.25;59.12
82033;BME280;71595;52.180;4.512;2023-07-30T12:36:59;101259.25;;;20.26;57.70
82033;BME280;71595;52.180;4.512;2023-07-30T12:39:25;101232.41;;;20.25;57.27
82033;BME280;71595;52.180;4.512;2023-07-30T12:41:50;101242.00;;;20.17;57.29
82033;BME280;71595;52.180;4.512;2023-07-30T12:44:15;101243.22;;;20.20;57.27
82033;BME280;71595;52.180;4.512;2023-07-30T12:46:41;101235.19;;;20.18;56.76